Time;durP1;ratioP1;P1;durP2;ratioP2;P2;SDS_P1;SDS_P2;PMS_P1;PMS_P2;Temp;Humidity;BMP_temperature;BMP_pressure;BME280_temperature;BME280_humidity;BME280_pressure;Samples;Min_cycle;Max_cycle;Signal;HPM_P1;HPM_P2
2022/03/19 00:00:58;;;;;;;63.67;39.90;;;6.80;99.90;;;;;;5025989;28;20223;-36
2022/03/19 00:03:25;;;;;;;63.03;41.20;;;6.80;99.90;;;;;;5026071;28;20184;-36
2022/03/19 00:05:51;;;;;;;62.00;41.10;;;6.80;99.90;;;;;;5026175;28;20273;-36
2022/03/19 00:08:17;;;;;;;60.47;39.20;;;6.80;99.90;;;;;;5026329;28;20265;-35
2022/03/19 00:10:46;;;;;;;64.30;40.87;;;6.80;99.90;;;;;;5025973;28;20216;-35
2022/03/19 00:13:15;;;;;;;65.97;42.00;;;6.70;99.90;;;;;;5010886;28;20181;-36
2022/03/19 00:15:40;;;;;;;66.37;41.73;;;6.70;99.90;;;;;;5009828;28;20186;-35
2022/03/19 00:18:07;;;;;;;65.53;43.10;;;6.70;99.90;;;;;;5025935;28;20193;-36
2022/03/19 00:20:35;;;;;;;64.67;41.13;;;6.60;99.90;;;;;;5025370;28;20201;-36
2022/03/19 00:23:02;;;;;;;69.87;42.93;;;6.60;99.90;;;;;;5026062;28;20185;-36
2022/03/19 00:25:27;;;;;;;71.20;43.70;;;6.60;99.90;;;;;;5026023;28;20181;-35
2022/03/19 00:27:53;;;;;;;64.67;42.83;;;6.50;99.90;;;;;;5025914;28;20187;-36
2022/03/19 00:30:20;;;;;;;63.87;42.67;;;6.50;99.90;;;;;;5009358;28;20216;-36
2022/03/19 00:32:46;;;;;;;67.90;43.37;;;6.50;99.90;;;;;;5025832;28;20193;-36
2022/03/19 00:35:12;;;;;;;68.83;43.43;;;6.50;99.90;;;;;;5025897;28;20181;-35
2022/03/19 00:37:53;;;;;;;64.60;41.80;;;6.50;99.90;;;;;;5009591;28;20185;-35
2022/03/19 00:40:20;;;;;;;68.00;42.73;;;6.40;99.90;;;;;;5009083;28;20201;-36
2022/03/19 00:42:48;;;;;;;71.10;45.03;;;6.40;99.90;;;;;;5011070;28;20186;-36
2022/03/19 00:45:14;;;;;;;70.07;42.90;;;6.30;99.90;;;;;;5009519;28;20184;-35
2022/03/19 00:47:40;;;;;;;68.57;44.63;;;6.30;99.90;;;;;;5025489;28;20181;-36
2022/03/19 00:50:07;;;;;;;68.23;43.63;;;6.20;99.90;;;;;;5009694;28;20209;-36
2022/03/19 00:52:33;;;;;;;68.77;44.30;;;6.20;99.90;;;;;;5012880;28;20180;-36
2022/03/19 00:54:59;;;;;;;73.23;44.97;;;6.20;99.90;;;;;;5014159;28;20182;-35
2022/03/19 00:57:26;;;;;;;71.87;45.17;;;6.20;99.90;;;;;;5029664;28;20260;-36
2022/03/19 00:59:52;;;;;;;71.63;45.20;;;6.20;99.90;;;;;;5029410;28;20295;-38
2022/03/19 01:02:18;;;;;;;70.60;45.17;;;6.20;99.90;;;;;;5029270;28;20192;-38
2022/03/19 01:04:44;;;;;;;67.30;44.80;;;6.20;99.90;;;;;;5012738;28;20231;-35
2022/03/19 01:07:09;;;;;;;69.30;43.90;;;6.20;99.90;;;;;;4996420;28;20221;-35
2022/03/19 01:09:36;;;;;;;71.10;44.20;;;6.20;99.90;;;;;;4995803;28;20244;-36
2022/03/19 01:12:03;;;;;;;71.83;45.47;;;6.20;99.90;;;;;;4995795;28;20227;-35
2022/03/19 01:14:28;;;;;;;71.87;45.70;;;6.20;99.90;;;;;;5029409;28;20198;-36
2022/03/19 01:16:54;;;;;;;71.63;45.93;;;6.20;99.90;;;;;;5028986;28;20547;-35
2022/03/19 01:19:52;;;;;;;71.83;45.83;;;6.20;99.90;;;;;;5012555;28;20189;-35
2022/03/19 01:22:06;;;;;;;71.33;44.90;;;6.20;99.90;;;;;;5012225;28;20209;-35
2022/03/19 01:24:32;;;;;;;70.23;44.83;;;6.20;99.90;;;;;;5028682;28;20192;-35
2022/03/19 01:26:57;;;;;;;71.27;44.47;;;6.20;99.90;;;;;;4996008;28;20184;-36
2022/03/19 01:29:23;;;;;;;73.03;45.23;;;6.10;99.90;;;;;;5013458;28;20201;-35
2022/03/19 01:31:49;;;;;;;73.70;45.30;;;6.10;99.90;;;;;;4995902;28;20212;-35
2022/03/19 01:34:15;;;;;;;68.17;44.13;;;6.00;99.90;;;;;;5028755;28;20176;-35
2022/03/19 01:36:41;;;;;;;73.00;46.70;;;6.00;99.90;;;;;;5028567;28;20176;-35
2022/03/19 01:39:07;;;;;;;70.97;43.50;;;5.90;99.90;;;;;;5012263;28;20234;-37
2022/03/19 01:41:38;;;;;;;68.63;43.53;;;5.80;99.90;;;;;;5012268;28;20208;-36
2022/03/19 01:44:05;;;;;;;74.10;46.53;;;5.70;99.90;;;;;;5012149;28;20184;-35
2022/03/19 01:46:30;;;;;;;72.93;44.93;;;5.70;99.90;;;;;;5028417;28;20179;-35
2022/03/19 01:48:57;;;;;;;71.07;46.00;;;5.70;99.90;;;;;;5011703;28;20175;-36
2022/03/19 01:51:23;;;;;;;68.67;43.30;;;5.70;99.90;;;;;;5028020;28;20220;-35
2022/03/19 01:53:48;;;;;;;70.03;44.33;;;5.70;99.90;;;;;;5028333;28;20258;-35
2022/03/19 01:56:15;;;;;;;70.73;44.03;;;5.70;99.90;;;;;;5027782;28;20247;-35
2022/03/19 01:58:40;;;;;;;69.37;44.20;;;5.70;99.90;;;;;;5028215;28;20196;-36
2022/03/19 02:01:07;;;;;;;68.17;43.43;;;5.60;99.90;;;;;;5027920;28;20218;-36
2022/03/19 02:03:34;;;;;;;66.27;44.50;;;5.60;99.90;;;;;;5011143;28;20189;-35
2022/03/19 02:06:01;;;;;;;69.57;43.60;;;5.60;99.90;;;;;;4995119;28;20636;-36
2022/03/19 02:08:28;;;;;;;69.47;42.97;;;5.60;99.90;;;;;;5011532;28;20212;-35
2022/03/19 02:10:54;;;;;;;64.97;43.33;;;5.60;99.90;;;;;;5027592;28;20215;-35
2022/03/19 02:13:20;;;;;;;67.60;42.03;;;5.60;99.90;;;;;;5028077;28;20209;-36
2022/03/19 02:15:46;;;;;;;66.00;43.10;;;5.60;99.90;;;;;;5028033;28;20185;-35
2022/03/19 02:18:11;;;;;;;68.93;43.30;;;5.60;99.90;;;;;;4994362;28;20202;-37
2022/03/19 02:20:39;;;;;;;62.83;41.37;;;5.50;99.90;;;;;;5027446;28;20207;-36
2022/03/19 02:25:49;;;;;;;63.33;41.23;;;5.40;99.90;;;;;;5011143;28;20215;-35
2022/03/19 02:28:15;;;;;;;61.33;40.97;;;5.30;99.90;;;;;;5011273;28;20232;-38
2022/03/19 02:30:43;;;;;;;63.73;41.13;;;5.30;99.90;;;;;;5027267;28;20568;-40
2022/03/19 02:33:10;;;;;;;67.53;41.87;;;5.20;99.90;;;;;;5027422;28;20187;-37
2022/03/19 02:35:36;;;;;;;65.43;43.20;;;5.20;99.90;;;;;;5027289;28;20176;-37
2022/03/19 02:38:02;;;;;;;62.47;41.07;;;5.20;99.90;;;;;;5027486;28;20177;-36
2022/03/19 02:40:27;;;;;;;61.63;40.03;;;5.20;99.90;;;;;;5010627;28;20204;-38
2022/03/19 02:42:55;;;;;;;63.27;41.90;;;5.20;99.90;;;;;;5026918;28;20235;-38
2022/03/19 02:45:25;;;;;;;65.93;41.97;;;5.20;99.90;;;;;;5011809;28;20184;-35
2022/03/19 02:47:57;;;;;;;66.53;40.37;;;5.20;99.90;;;;;;5010577;28;20540;-35
2022/03/19 02:50:24;;;;;;;63.27;41.23;;;5.30;99.90;;;;;;5026950;28;20738;-38
2022/03/19 02:52:51;;;;;;;64.77;41.00;;;5.20;99.90;;;;;;5027229;28;20294;-38
2022/03/19 02:55:18;;;;;;;65.60;40.80;;;5.20;99.90;;;;;;5010810;28;20656;-35
2022/03/19 02:57:43;;;;;;;61.90;40.43;;;5.20;99.90;;;;;;5026846;28;20185;-38
2022/03/19 03:00:09;;;;;;;60.67;38.47;;;5.20;99.90;;;;;;5026629;28;20223;-37
2022/03/19 03:02:35;;;;;;;62.90;39.10;;;5.20;99.90;;;;;;4994296;28;20262;-36
2022/03/19 03:05:01;;;;;;;60.83;39.33;;;5.20;99.90;;;;;;5026872;28;20290;-36
2022/03/19 03:07:27;;;;;;;63.10;39.20;;;5.20;99.90;;;;;;5026911;28;20231;-38
2022/03/19 03:09:53;;;;;;;59.27;38.77;;;5.20;99.90;;;;;;5026463;28;20199;-38
2022/03/19 03:12:18;;;;;;;64.03;39.83;;;5.20;99.90;;;;;;5026397;28;20213;-36
2022/03/19 03:14:44;;;;;;;59.80;38.23;;;5.20;99.90;;;;;;5026126;28;20186;-38
2022/03/19 03:17:10;;;;;;;55.60;37.70;;;5.20;99.90;;;;;;5026813;28;20194;-38
2022/03/19 03:19:36;;;;;;;60.13;38.73;;;5.20;99.90;;;;;;5026573;28;20198;-38
2022/03/19 03:22:02;;;;;;;63.63;38.70;;;5.20;99.90;;;;;;5026909;28;20215;-38
2022/03/19 03:24:29;;;;;;;58.87;37.77;;;5.10;99.90;;;;;;5026509;28;20183;-38
2022/03/19 03:26:55;;;;;;;56.77;37.10;;;5.10;99.90;;;;;;5010221;28;20182;-38
2022/03/19 03:29:21;;;;;;;52.93;36.43;;;5.00;99.90;;;;;;5026534;28;20191;-38
2022/03/19 03:31:47;;;;;;;59.60;37.13;;;5.00;99.90;;;;;;5026498;28;20214;-38
2022/03/19 03:34:13;;;;;;;57.43;38.10;;;5.10;99.90;;;;;;5010092;28;20205;-38
2022/03/19 03:36:39;;;;;;;56.83;37.93;;;5.10;99.90;;;;;;5026483;28;20180;-38
2022/03/19 03:39:04;;;;;;;57.77;36.83;;;5.10;99.90;;;;;;5026467;28;20184;-38
2022/03/19 03:41:30;;;;;;;57.60;38.13;;;5.10;99.90;;;;;;4993051;28;20243;-38
2022/03/19 03:43:57;;;;;;;59.83;37.00;;;5.10;99.90;;;;;;5026320;28;20187;-38
2022/03/19 03:46:22;;;;;;;57.53;37.10;;;5.10;99.90;;;;;;5026407;28;20191;-38
2022/03/19 03:48:48;;;;;;;58.07;36.30;;;5.10;99.90;;;;;;5009965;28;20211;-38
2022/03/19 03:51:14;;;;;;;53.97;35.93;;;5.10;99.90;;;;;;5009840;28;20207;-38
2022/03/19 03:53:42;;;;;;;54.40;35.83;;;5.10;99.90;;;;;;5026538;28;20279;-38
2022/03/19 03:56:11;;;;;;;55.57;36.73;;;5.10;99.90;;;;;;5026226;28;20664;-38
2022/03/19 03:58:37;;;;;;;55.27;35.97;;;5.10;99.90;;;;;;4993728;28;20192;-38
2022/03/19 04:01:03;;;;;;;57.87;37.27;;;5.00;99.90;;;;;;5009505;28;20305;-38
2022/03/19 04:03:28;;;;;;;57.10;36.97;;;5.00;99.90;;;;;;5009603;28;20332;-39
2022/03/19 04:05:54;;;;;;;54.43;35.50;;;4.90;99.90;;;;;;5010050;28;20183;-38
2022/03/19 04:08:20;;;;;;;57.37;37.40;;;4.90;99.90;;;;;;5010070;28;20183;-38
2022/03/19 04:10:46;;;;;;;57.77;36.13;;;4.80;99.90;;;;;;5009093;28;20215;-38
2022/03/19 04:13:12;;;;;;;53.30;36.53;;;4.80;99.90;;;;;;5009686;28;20217;-38
2022/03/19 04:15:38;;;;;;;52.40;35.83;;;4.70;99.90;;;;;;5026056;28;20185;-38
2022/03/19 04:18:04;;;;;;;53.80;35.90;;;4.70;99.90;;;;;;5026237;28;20190;-38
2022/03/19 04:20:30;;;;;;;55.80;36.77;;;4.60;99.90;;;;;;5009497;28;20203;-38
2022/03/19 04:22:56;;;;;;;54.47;35.77;;;4.60;99.90;;;;;;5026009;28;20195;-38
2022/03/19 04:25:23;;;;;;;60.03;37.27;;;4.50;99.90;;;;;;5026668;28;20198;-38
2022/03/19 04:27:51;;;;;;;53.97;34.93;;;4.50;99.90;;;;;;5014695;28;20190;-38
2022/03/19 04:30:19;;;;;;;58.53;35.27;;;4.50;99.90;;;;;;4998693;28;20706;-38
2022/03/19 04:32:47;;;;;;;55.13;35.70;;;4.50;99.90;;;;;;5029863;28;20179;-38
2022/03/19 04:38:18;;;;;;;55.60;35.57;;;4.50;99.90;;;;;;4980822;28;20194;-38
2022/03/19 04:40:46;;;;;;;49.00;32.80;;;4.50;99.90;;;;;;5012793;28;20635;-38
2022/03/19 04:43:12;;;;;;;56.47;35.43;;;4.50;99.90;;;;;;5029692;28;20195;-38
2022/03/19 04:45:39;;;;;;;50.73;33.90;;;4.60;99.90;;;;;;5029304;28;20183;-38
2022/03/19 04:48:06;;;;;;;53.47;33.70;;;4.50;99.90;;;;;;5013135;28;20187;-38
2022/03/19 04:50:37;;;;;;;53.47;35.03;;;4.50;99.90;;;;;;5012648;28;20745;-38
2022/03/19 04:53:05;;;;;;;52.87;33.87;;;4.40;99.90;;;;;;5012829;28;20176;-38
2022/03/19 04:55:30;;;;;;;56.00;34.27;;;4.40;99.90;;;;;;5013044;28;20782;-38
2022/03/19 04:57:56;;;;;;;56.50;35.60;;;4.40;99.90;;;;;;4996566;28;20270;-38
2022/03/19 05:00:22;;;;;;;54.30;33.77;;;4.30;99.90;;;;;;5029031;28;20227;-38
2022/03/19 05:02:48;;;;;;;54.43;34.00;;;4.30;99.90;;;;;;5029227;28;20183;-38
2022/03/19 05:05:14;;;;;;;53.27;33.73;;;4.20;99.90;;;;;;5012922;28;20214;-38
2022/03/19 05:07:40;;;;;;;51.27;34.23;;;4.20;99.90;;;;;;5012780;28;20179;-38
2022/03/19 05:12:53;;;;;;;50.90;32.90;;;4.20;99.90;;;;;;5012550;28;20268;-38
2022/03/19 05:15:20;;;;;;;56.23;34.17;;;4.20;99.90;;;;;;5028803;28;20710;-39
2022/03/19 05:17:46;;;;;;;52.23;32.77;;;4.20;99.90;;;;;;5028404;28;20219;-39
2022/03/19 05:20:13;;;;;;;55.53;33.57;;;4.10;99.90;;;;;;5028755;28;20237;-38
2022/03/19 05:22:39;;;;;;;52.83;33.80;;;4.20;99.90;;;;;;5028751;28;20528;-38
2022/03/19 05:25:06;;;;;;;48.50;33.40;;;4.10;99.90;;;;;;5028977;28;20630;-38
2022/03/19 05:27:32;;;;;;;51.83;32.27;;;4.10;99.90;;;;;;5012734;28;20226;-39
2022/03/19 05:29:58;;;;;;;53.17;32.80;;;4.10;99.90;;;;;;5011721;28;20211;-39
2022/03/19 05:32:24;;;;;;;52.70;33.67;;;4.20;99.90;;;;;;5012048;28;20238;-38
2022/03/19 05:34:51;;;;;;;52.13;33.73;;;4.20;99.90;;;;;;5026872;28;20180;-39
2022/03/19 05:37:17;;;;;;;54.03;33.57;;;4.10;99.90;;;;;;5028094;28;20230;-38
2022/03/19 05:39:43;;;;;;;56.13;34.57;;;4.10;99.90;;;;;;5028434;28;20199;-41
2022/03/19 05:42:11;;;;;;;50.40;32.50;;;4.00;99.90;;;;;;5028215;28;20179;-38
2022/03/19 05:44:37;;;;;;;51.10;32.00;;;4.00;99.90;;;;;;5028768;28;20191;-39
2022/03/19 05:47:04;;;;;;;51.70;31.83;;;4.00;99.90;;;;;;5028355;28;20232;-38
2022/03/19 05:49:30;;;;;;;52.23;34.20;;;3.90;99.90;;;;;;5011440;28;20187;-38
2022/03/19 05:51:57;;;;;;;48.77;32.30;;;3.90;99.90;;;;;;5028449;28;20210;-38
2022/03/19 05:54:24;;;;;;;51.70;32.97;;;3.90;99.90;;;;;;5028614;28;20187;-39
2022/03/19 05:56:49;;;;;;;51.10;31.77;;;3.90;99.90;;;;;;5028427;28;20176;-38
2022/03/19 05:59:15;;;;;;;50.03;31.83;;;3.90;99.90;;;;;;5028003;28;20202;-38
2022/03/19 06:01:44;;;;;;;49.47;32.47;;;3.90;99.90;;;;;;4995602;28;20226;-38
2022/03/19 06:04:10;;;;;;;47.60;32.83;;;3.90;99.90;;;;;;5028288;28;20266;-38
2022/03/19 06:06:36;;;;;;;50.83;32.30;;;3.90;99.90;;;;;;5011820;28;20646;-40
2022/03/19 06:09:03;;;;;;;50.10;31.67;;;3.90;99.90;;;;;;5011626;28;20286;-39
2022/03/19 06:11:28;;;;;;;54.63;34.03;;;3.90;99.90;;;;;;5011250;28;20207;-38
2022/03/19 06:13:55;;;;;;;49.87;32.57;;;3.90;99.90;;;;;;5011321;28;20171;-38
2022/03/19 06:16:21;;;;;;;48.83;30.53;;;4.00;99.90;;;;;;5027988;28;20184;-40
2022/03/19 06:18:50;;;;;;;49.07;32.13;;;4.00;99.90;;;;;;5012241;28;20179;-41
2022/03/19 06:21:16;;;;;;;50.30;32.60;;;4.00;99.90;;;;;;5011565;28;20207;-39
2022/03/19 06:23:44;;;;;;;51.37;31.87;;;4.10;99.90;;;;;;4994849;28;20175;-40
2022/03/19 06:26:11;;;;;;;48.43;33.20;;;4.10;99.90;;;;;;5011268;28;20210;-38
2022/03/19 06:28:37;;;;;;;50.57;31.53;;;4.10;99.90;;;;;;5027770;28;20675;-38
2022/03/19 06:31:03;;;;;;;50.43;32.07;;;4.10;99.90;;;;;;5026817;28;20207;-41
2022/03/19 06:33:30;;;;;;;54.03;33.37;;;4.20;99.90;;;;;;5013489;28;20270;-38
2022/03/19 06:38:41;;;;;;;50.57;31.70;;;4.30;99.90;;;;;;4992820;28;20175;-38
2022/03/19 06:41:07;;;;;;;47.07;30.60;;;4.40;99.90;;;;;;5007536;28;20223;-39
2022/03/19 06:43:33;;;;;;;46.87;29.17;;;4.50;99.90;;;;;;5016367;28;20184;-39
2022/03/19 06:46:00;;;;;;;46.63;30.70;;;4.60;99.90;;;;;;5016913;28;20186;-39
2022/03/19 06:48:26;;;;;;;48.33;30.83;;;4.70;99.90;;;;;;5018056;28;20183;-39
2022/03/19 06:50:56;;;;;;;46.37;30.20;;;4.80;99.90;;;;;;5015872;28;20210;-41
2022/03/19 06:53:24;;;;;;;45.50;30.30;;;4.80;99.90;;;;;;5015891;28;20180;-39
2022/03/19 06:55:51;;;;;;;46.23;29.93;;;5.00;99.90;;;;;;5015507;28;20232;-44
2022/03/19 06:58:22;;;;;;;42.93;29.27;;;5.10;99.90;;;;;;5016442;28;20184;-38
2022/03/19 07:00:49;;;;;;;45.83;30.33;;;5.20;99.90;;;;;;5009323;28;20208;-40
2022/03/19 07:03:15;;;;;;;44.70;29.53;;;5.30;99.90;;;;;;5016258;28;20215;-38
2022/03/19 07:05:41;;;;;;;42.20;28.23;;;5.50;99.90;;;;;;5001105;28;20219;-41
2022/03/19 07:08:08;;;;;;;39.33;27.10;;;5.60;99.90;;;;;;5017487;28;20206;-38
2022/03/19 07:10:37;;;;;;;41.57;27.90;;;5.70;99.90;;;;;;5015493;28;20204;-38
2022/03/19 07:13:04;;;;;;;42.07;28.97;;;5.70;99.90;;;;;;5016014;28;20172;-39
2022/03/19 07:15:30;;;;;;;45.40;27.73;;;5.80;99.90;;;;;;5026530;28;20235;-38
2022/03/19 07:18:00;;;;;;;40.90;27.43;;;5.90;99.90;;;;;;5026735;28;20183;-39
2022/03/19 07:20:27;;;;;;;42.77;28.37;;;6.00;99.90;;;;;;5026318;28;20199;-38
2022/03/19 07:23:02;;;;;;;41.00;27.40;;;6.10;99.90;;;;;;5026176;28;20188;-38
2022/03/19 07:25:30;;;;;;;39.73;27.53;;;6.20;99.90;;;;;;5026723;28;20178;-37
2022/03/19 07:28:00;;;;;;;42.10;27.87;;;6.30;99.90;;;;;;5027212;28;20180;-38
2022/03/19 07:30:26;;;;;;;39.17;27.53;;;6.40;99.90;;;;;;5026510;28;20240;-38
2022/03/19 07:32:53;;;;;;;42.23;27.80;;;6.50;99.90;;;;;;5026803;28;20172;-38
2022/03/19 07:35:19;;;;;;;40.03;26.67;;;6.60;99.90;;;;;;5008912;28;20188;-38
2022/03/19 07:37:47;;;;;;;40.67;25.90;;;6.70;99.90;;;;;;5016484;28;20746;-38
2022/03/19 07:40:15;;;;;;;43.17;27.60;;;6.70;99.90;;;;;;5023558;28;20230;-35
2022/03/19 07:42:42;;;;;;;40.40;27.07;;;6.80;99.90;;;;;;5026427;28;20177;-36
2022/03/19 07:45:09;;;;;;;37.97;27.13;;;6.90;99.90;;;;;;5026492;28;20185;-36
2022/03/19 07:47:35;;;;;;;39.37;27.13;;;7.00;99.90;;;;;;5006929;28;20204;-36
2022/03/19 07:50:02;;;;;;;36.87;27.00;;;7.00;99.90;;;;;;5025962;28;20207;-36
2022/03/19 07:52:28;;;;;;;41.53;27.67;;;7.10;99.90;;;;;;5010029;28;20229;-36
2022/03/19 07:54:54;;;;;;;40.13;27.90;;;7.10;99.90;;;;;;5000278;28;20188;-36
2022/03/19 07:57:23;;;;;;;39.80;27.10;;;7.20;99.90;;;;;;5018793;28;20185;-35
2022/03/19 07:59:49;;;;;;;36.67;26.47;;;7.30;99.90;;;;;;5011513;28;20210;-36
2022/03/19 08:02:17;;;;;;;36.90;25.47;;;7.40;99.90;;;;;;5018676;28;20205;-37
2022/03/19 08:04:43;;;;;;;40.63;26.53;;;7.50;99.90;;;;;;5025206;28;20190;-36
2022/03/19 08:07:09;;;;;;;39.00;26.53;;;7.60;99.90;;;;;;5026288;28;20522;-36
2022/03/19 08:09:36;;;;;;;37.20;26.03;;;7.80;99.90;;;;;;5004440;28;20209;-36
2022/03/19 08:12:02;;;;;;;40.67;26.73;;;7.80;99.90;;;;;;5004419;28;20210;-37
2022/03/19 08:14:29;;;;;;;37.30;26.17;;;8.00;99.90;;;;;;5027345;28;20681;-36
2022/03/19 08:16:55;;;;;;;35.90;25.10;;;8.00;99.90;;;;;;5018187;28;20235;-36
2022/03/19 08:19:25;;;;;;;37.13;25.87;;;8.10;99.90;;;;;;4995067;28;20178;-36
2022/03/19 08:21:52;;;;;;;37.40;26.00;;;8.00;99.90;;;;;;5027746;28;20212;-36
2022/03/19 08:24:28;;;;;;;37.03;26.63;;;8.10;99.90;;;;;;5015521;28;20179;-36
2022/03/19 08:26:55;;;;;;;44.73;27.87;;;8.20;99.90;;;;;;5032276;28;20209;-36
2022/03/19 08:29:24;;;;;;;40.83;26.93;;;8.40;99.90;;;;;;5030587;28;20570;-37
2022/03/19 08:31:53;;;;;;;40.03;27.13;;;8.50;99.90;;;;;;5013288;28;20207;-36
2022/03/19 08:34:20;;;;;;;37.07;26.30;;;8.60;99.90;;;;;;5029837;28;20328;-36
2022/03/19 08:36:46;;;;;;;37.90;26.33;;;8.80;99.90;;;;;;5013000;28;20213;-36
2022/03/19 08:41:57;;;;;;;35.23;24.40;;;8.90;99.90;;;;;;5014108;28;20210;-36
2022/03/19 08:44:23;;;;;;;35.30;24.37;;;9.10;99.90;;;;;;4996231;28;20254;-37
2022/03/19 08:46:49;;;;;;;34.97;26.13;;;9.20;99.90;;;;;;5029492;28;20658;-36
2022/03/19 08:49:15;;;;;;;36.53;25.33;;;9.50;99.90;;;;;;5029346;28;20180;-36
2022/03/19 08:51:41;;;;;;;35.73;25.43;;;9.60;99.90;;;;;;5029339;28;20215;-36
2022/03/19 08:54:18;;;;;;;34.77;25.80;;;9.70;99.90;;;;;;5012734;28;20184;-36
2022/03/19 08:56:48;;;;;;;34.00;24.73;;;9.70;99.90;;;;;;5026912;28;20175;-36
2022/03/19 08:59:19;;;;;;;35.00;24.50;;;9.80;99.90;;;;;;5021273;28;20184;-36
2022/03/19 09:01:48;;;;;;;36.13;24.50;;;9.90;99.90;;;;;;5018310;28;20231;-37
2022/03/19 09:04:14;;;;;;;31.40;22.90;;;10.10;99.90;;;;;;5018306;28;20224;-36
2022/03/19 09:06:41;;;;;;;32.07;22.93;;;10.20;99.90;;;;;;5018461;28;20203;-36
2022/03/19 09:09:07;;;;;;;35.43;24.50;;;10.30;99.90;;;;;;5014415;28;20184;-36
2022/03/19 09:11:34;;;;;;;34.43;23.37;;;10.30;99.90;;;;;;5008454;28;20235;-36
2022/03/19 09:14:03;;;;;;;34.13;23.50;;;10.40;99.90;;;;;;5008912;28;20180;-36
2022/03/19 09:16:29;;;;;;;34.53;23.43;;;10.60;99.90;;;;;;4992979;28;20207;-36
2022/03/19 09:18:56;;;;;;;33.50;22.97;;;10.60;99.90;;;;;;4993998;28;20200;-36
2022/03/19 09:21:22;;;;;;;32.50;23.63;;;10.60;99.90;;;;;;5008577;28;20208;-37
2022/03/19 09:23:50;;;;;;;31.53;23.40;;;10.60;99.90;;;;;;5009003;28;20188;-38
2022/03/19 09:26:17;;;;;;;32.50;23.13;;;10.60;99.90;;;;;;4992871;28;20188;-35
2022/03/19 09:28:44;;;;;;;29.50;22.73;;;10.60;99.90;;;;;;5014391;28;20222;-37
2022/03/19 09:31:09;;;;;;;33.53;23.43;;;10.60;99.90;;;;;;5028544;28;20210;-36
2022/03/19 09:33:35;;;;;;;31.73;22.63;;;10.80;99.90;;;;;;5028566;28;20179;-40
2022/03/19 09:36:01;;;;;;;31.33;23.47;;;10.70;99.90;;;;;;5028606;28;20179;-37
2022/03/19 09:38:28;;;;;;;30.50;23.13;;;10.80;99.90;;;;;;5028749;28;20183;-36
2022/03/19 09:40:55;;;;;;;31.97;23.23;;;10.90;99.90;;;;;;4995460;28;20664;-36
2022/03/19 09:43:26;;;;;;;33.20;23.90;;;10.90;99.90;;;;;;4995743;28;20179;-36
2022/03/19 09:45:52;;;;;;;31.83;23.27;;;10.90;99.90;;;;;;5028383;28;20191;-36
2022/03/19 09:48:18;;;;;;;33.23;23.40;;;11.00;99.90;;;;;;5028147;28;20191;-38
2022/03/19 09:50:45;;;;;;;32.93;22.30;;;10.90;99.90;;;;;;5011531;28;20242;-37
2022/03/19 09:53:11;;;;;;;30.67;22.30;;;11.00;99.90;;;;;;5028387;28;20325;-36
2022/03/19 09:55:41;;;;;;;31.33;22.50;;;11.00;99.90;;;;;;5028160;28;20179;-37
2022/03/19 09:58:06;;;;;;;34.43;22.80;;;11.10;99.90;;;;;;5011498;28;20176;-40
2022/03/19 10:00:32;;;;;;;29.13;22.77;;;11.30;99.90;;;;;;5010643;28;20211;-36
2022/03/19 10:03:02;;;;;;;28.53;21.97;;;11.40;99.90;;;;;;5025304;28;20259;-37
2022/03/19 10:08:37;;;;;;;28.17;22.13;;;11.50;99.90;;;;;;5008270;28;20256;-37
2022/03/19 10:11:08;;;;;;;33.03;21.83;;;11.70;99.90;;;;;;5007523;28;20229;-36
2022/03/19 10:13:45;;;;;;;31.97;22.40;;;11.70;99.90;;;;;;4993290;28;20201;-36
2022/03/19 10:16:28;;;;;;;30.70;23.00;;;11.70;99.90;;;;;;4993586;28;20170;-36
2022/03/19 10:19:04;;;;;;;28.10;21.60;;;11.90;99.90;;;;;;4993855;28;20204;-36
2022/03/19 10:21:36;;;;;;;30.77;22.93;;;11.90;99.90;;;;;;5001626;28;20190;-36
2022/03/19 10:24:02;;;;;;;29.00;21.33;;;11.90;99.90;;;;;;5010509;28;20186;-39
2022/03/19 10:26:37;;;;;;;30.13;21.40;;;11.90;99.90;;;;;;4991362;28;20202;-36
2022/03/19 10:29:05;;;;;;;29.90;22.80;;;12.00;99.90;;;;;;5014499;28;20284;-36
2022/03/19 10:31:36;;;;;;;30.00;22.27;;;11.90;99.90;;;;;;5027362;28;20222;-38
2022/03/19 10:34:06;;;;;;;30.37;21.37;;;12.10;99.90;;;;;;4995015;28;20184;-36
2022/03/19 10:36:37;;;;;;;30.13;21.90;;;11.80;99.90;;;;;;5027434;28;20181;-38
2022/03/19 10:39:11;;;;;;;29.83;21.17;;;11.60;99.90;;;;;;4994652;28;20186;-36
2022/03/19 10:41:38;;;;;;;29.10;22.07;;;11.70;99.90;;;;;;5027249;28;20292;-37
2022/03/19 10:44:16;;;;;;;30.30;22.80;;;11.90;99.90;;;;;;5010788;28;20673;-38
2022/03/19 10:47:04;;;;;;;31.27;21.67;;;12.00;99.90;;;;;;5027278;28;20186;-36
2022/03/19 10:49:30;;;;;;;28.13;21.43;;;12.10;99.90;;;;;;5027106;28;20251;-36
2022/03/19 10:51:58;;;;;;;34.60;23.07;;;12.30;99.90;;;;;;5027086;28;20288;-38
2022/03/19 10:54:25;;;;;;;28.20;21.43;;;12.30;99.90;;;;;;5027323;28;20182;-36
2022/03/19 10:56:52;;;;;;;27.57;22.13;;;12.20;99.90;;;;;;5027176;28;20179;-37
2022/03/19 10:59:19;;;;;;;29.03;21.87;;;12.00;99.90;;;;;;5010253;28;20297;-36
2022/03/19 11:01:50;;;;;;;28.80;23.03;;;12.30;99.90;;;;;;5010599;28;20187;-37
2022/03/19 11:04:18;;;;;;;27.43;21.43;;;12.50;99.90;;;;;;4994184;28;20198;-37
2022/03/19 11:06:50;;;;;;;30.17;22.43;;;12.60;99.90;;;;;;5011780;28;20178;-37
2022/03/19 11:09:19;;;;;;;29.30;22.23;;;12.80;99.90;;;;;;5010083;28;20218;-38
2022/03/19 11:12:00;;;;;;;28.10;21.63;;;12.90;99.90;;;;;;5026415;28;20260;-37
2022/03/19 11:14:30;;;;;;;27.50;21.37;;;13.00;99.90;;;;;;5028704;28;20172;-37
2022/03/19 11:17:27;;;;;;;28.37;21.60;;;13.10;99.90;;;;;;5011851;28;20232;-37
2022/03/19 11:19:55;;;;;;;30.90;21.30;;;13.20;99.90;;;;;;4995219;28;20191;-39
2022/03/19 11:22:22;;;;;;;24.20;19.73;;;13.30;99.90;;;;;;5028317;28;20187;-37
2022/03/19 11:25:20;;;;;;;26.00;19.03;;;13.20;99.70;;;;;;5027957;28;20277;-38
2022/03/19 11:27:52;;;;;;;25.83;18.90;;;13.30;99.90;;;;;;5012122;28;20189;-37
2022/03/19 11:30:23;;;;;;;24.63;19.00;;;13.20;99.60;;;;;;5026750;28;20207;-37
2022/03/19 11:33:17;;;;;;;24.90;19.87;;;13.30;99.90;;;;;;5027961;28;20217;-36
2022/03/19 11:35:47;;;;;;;28.33;21.43;;;13.20;99.90;;;;;;5010873;28;20184;-40
2022/03/19 11:38:21;;;;;;;28.93;21.17;;;13.20;99.90;;;;;;5011396;28;20185;-37
2022/03/19 11:40:54;;;;;;;27.70;22.13;;;13.30;99.90;;;;;;5026507;28;20209;-37
2022/03/19 11:43:35;;;;;;;28.50;20.60;;;13.30;99.90;;;;;;5026272;28;20176;-37
2022/03/19 11:46:03;;;;;;;29.63;22.67;;;13.40;99.90;;;;;;5010078;28;20616;-37
2022/03/19 11:48:35;;;;;;;29.97;22.03;;;13.50;99.90;;;;;;5026438;28;20229;-38
2022/03/19 11:51:27;;;;;;;32.03;24.60;;;13.60;99.90;;;;;;5026201;28;20210;-38
2022/03/19 11:53:59;;;;;;;30.13;24.47;;;13.50;99.90;;;;;;5009852;28;20713;-36
2022/03/19 11:56:40;;;;;;;30.57;24.27;;;13.60;99.90;;;;;;5026273;28;20559;-36
2022/03/19 11:59:15;;;;;;;33.80;25.27;;;13.70;99.90;;;;;;5025159;28;20231;-36
2022/03/19 12:01:55;;;;;;;30.67;23.57;;;13.60;99.90;;;;;;5025971;28;20198;-37
2022/03/19 12:04:40;;;;;;;28.20;22.07;;;13.40;99.90;;;;;;5012360;28;20175;-36
2022/03/19 12:07:06;;;;;;;30.73;21.17;;;13.40;99.90;;;;;;5027923;28;20362;-36
2022/03/19 12:09:38;;;;;;;27.37;20.93;;;13.50;99.90;;;;;;4994900;28;20199;-37
2022/03/19 12:12:11;;;;;;;27.70;20.10;;;13.50;99.90;;;;;;5010591;28;20560;-37
2022/03/19 12:14:37;;;;;;;25.77;18.17;;;13.60;99.90;;;;;;5026276;28;20194;-36
2022/03/19 12:17:16;;;;;;;22.93;15.73;;;13.70;99.90;;;;;;4993389;28;20183;-36
2022/03/19 12:19:54;;;;;;;21.30;15.13;;;13.80;98.20;;;;;;5024946;28;20222;-36
2022/03/19 12:22:40;;;;;;;22.30;15.80;;;13.90;98.50;;;;;;5008994;28;20195;-37
2022/03/19 12:25:09;;;;;;;22.17;16.40;;;13.90;98.50;;;;;;5005944;28;20188;-37
2022/03/19 12:27:36;;;;;;;24.03;18.40;;;13.90;98.00;;;;;;5006329;28;20176;-36
2022/03/19 12:30:03;;;;;;;21.90;16.50;;;13.80;97.60;;;;;;5006541;28;20203;-36
2022/03/19 12:32:29;;;;;;;26.17;16.77;;;13.70;98.40;;;;;;5025691;28;20207;-37
2022/03/19 12:34:59;;;;;;;51.67;46.23;;;13.60;97.20;;;;;;5023374;28;20705;-36
2022/03/19 12:37:25;;;;;;;22.40;16.67;;;13.40;96.00;;;;;;5012502;28;20183;-37
2022/03/19 12:40:01;;;;;;;20.47;15.60;;;13.10;97.70;;;;;;5013215;28;20188;-36
2022/03/19 12:42:32;;;;;;;18.20;14.73;;;13.40;97.80;;;;;;5007317;28;20187;-37
2022/03/19 12:45:03;;;;;;;18.50;13.40;;;13.60;96.90;;;;;;5024958;28;20191;-36
2022/03/19 12:47:30;;;;;;;17.53;12.53;;;13.60;95.70;;;;;;5029563;28;20171;-36
2022/03/19 12:49:56;;;;;;;17.60;13.23;;;13.40;96.00;;;;;;5030823;28;20278;-36
2022/03/19 12:52:23;;;;;;;18.27;14.07;;;13.30;96.20;;;;;;5026815;28;20228;-36
2022/03/19 12:54:51;;;;;;;17.83;13.27;;;13.30;96.20;;;;;;5017081;28;20176;-36